Impacts TAF Board INFO
FOR SITUATIONAL AWARENESS. NOT TO BE USED FOR FLIGHT PLANNING PURPOSES.
IDs:

KTPA - Tampa Intl Arpt, FL, US

Issued at 1506 UTC 23 May 2018
Updated at 1512 UTC 23 May 2018
Potential Impact None Slight Moderate High
Time<<24/04Z 24/05Z 24/06Z 24/07Z 24/08Z 24/09Z 24/10Z 24/11Z 24/12Z 24/13Z 24/14Z 24/15Z 24/16Z>>
Type PRVL PRVL PRVL PRVL PRVL PRVL PRVL PRVL PRVL PRVL PRVL PRVL PRVL
VIS >6 >6 >6 >6 >6 >6 >6 >6 >6 >6 >6 >6 >6
CIG 250 250 250 250 250 250 250 250 250 250 50 50 50
Cover BKN BKN BKN BKN BKN BKN BKN BKN BKN BKN BKN BKN BKN
FltCat VFR VFR VFR VFR VFR VFR VFR VFR VFR VFR VFR VFR VFR
WX -- -- -- -- -- -- -- -- -- -- -- -- --
WDir VRB VRB VRB VRB VRB VRB VRB VRB VRB VRB 150 150 150
WSpd 3 3 3 3 3 3 3 3 3 3 6 6 6
WGst -- -- -- -- -- -- -- -- -- -- -- -- --

Raw TAF
KTPA 231506Z 2315/2418 16006KT P6SM SCT020 SCT250
  FM231700 22007KT P6SM SCT030 SCT250
  FM232000 28008KT P6SM VCTS SCT035CB BKN050 BKN250
  FM240200 VRB03KT P6SM SCT030 SCT100 BKN250
  FM241400 15006KT P6SM SCT020 BKN050


METAR Board
Radar Display
Forecast Discussion

FOR SITUATIONAL AWARENESS. NOT TO BE USED FOR FLIGHT PLANNING PURPOSES.